createdAt,value
2016-05-08T00:02:36.234Z,11.8
2016-05-08T00:05:49.413Z,11.8
2016-05-08T00:09:07.875Z,11.8
2016-05-08T00:12:11.070Z,11.7
2016-05-08T00:15:23.531Z,11.7
2016-05-08T00:18:36.542Z,11.7
2016-05-08T00:21:49.503Z,11.6
2016-05-08T00:25:07.175Z,11.6
2016-05-08T00:28:10.354Z,11.6
2016-05-08T00:31:22.816Z,11.6
2016-05-08T00:34:34.905Z,11.6
2016-05-08T00:37:48.039Z,11.5
2016-05-08T00:41:05.967Z,11.5
2016-05-08T00:44:09.258Z,11.5
2016-05-08T00:47:22.156Z,11.5
2016-05-08T00:50:35.291Z,11.4
2016-05-08T00:53:48.425Z,11.4
2016-05-08T00:57:06.339Z,11.3
2016-05-08T01:00:09.441Z,11.3
2016-05-08T01:03:22.698Z,11.3
2016-05-08T01:06:35.445Z,11.2
2016-05-08T01:09:48.624Z,11.2
2016-05-08T01:13:06.508Z,11.1
2016-05-08T01:16:09.766Z,11.1
2016-05-08T01:19:20.805Z,11.1
2016-05-08T01:22:35.800Z,11
2016-05-08T01:25:48.761Z,11
2016-05-08T01:29:06.880Z,10.9
2016-05-08T01:32:10.121Z,10.9
2016-05-08T01:35:22.927Z,10.9
2016-05-08T01:38:35.875Z,10.8
2016-05-08T01:41:49.054Z,10.8
2016-05-08T01:45:06.813Z,10.8
2016-05-08T01:48:09.915Z,10.7
2016-05-08T01:51:22.642Z,10.7
2016-05-08T01:54:35.450Z,10.7
2016-05-08T01:57:48.332Z,10.7
2016-05-08T02:01:06.325Z,10.6
2016-05-08T02:04:09.598Z,10.6
2016-05-08T02:07:22.763Z,10.5
2016-05-08T02:10:35.727Z,10.5
2016-05-08T02:13:48.704Z,10.5
2016-05-08T02:17:06.523Z,10.5
2016-05-08T02:20:09.798Z,10.5
2016-05-08T02:23:23.040Z,10.5
2016-05-08T02:26:36.082Z,10.5
2016-05-08T02:29:49.262Z,10.4
2016-05-08T02:33:07.286Z,10.4
2016-05-08T02:36:10.403Z,10.3
2016-05-08T02:39:21.521Z,10.3
2016-05-08T02:42:36.814Z,10.3
2016-05-08T02:45:49.731Z,10.3
2016-05-08T02:49:05.754Z,10.2
2016-05-08T02:52:09.056Z,10.2
2016-05-08T02:55:21.989Z,10.1
2016-05-08T02:58:34.868Z,10.1
2016-05-08T03:01:47.715Z,10.1
2016-05-08T03:05:05.679Z,10.1
2016-05-08T03:08:08.876Z,10.1
2016-05-08T03:11:21.885Z,10
2016-05-08T03:14:34.846Z,10
2016-05-08T03:17:48.107Z,10
2016-05-08T03:21:06.522Z,10
2016-05-08T03:24:09.701Z,10
2016-05-08T03:27:23.335Z,9.9
2016-05-08T03:30:36.311Z,9.9
2016-05-08T03:33:49.213Z,9.9
2016-05-08T03:37:07.377Z,9.9
2016-05-08T03:40:10.666Z,9.9
2016-05-08T03:43:23.831Z,9.9
2016-05-08T03:46:37.151Z,9.9
2016-05-08T03:49:50.381Z,9.9
2016-05-08T03:53:08.592Z,9.9
2016-05-08T03:56:11.787Z,9.9
2016-05-08T03:59:24.858Z,9.9
2016-05-08T04:02:38.119Z,9.9
2016-05-08T04:05:51.267Z,9.9
2016-05-08T04:09:09.182Z,10
2016-05-08T04:12:12.378Z,10
2016-05-08T04:15:25.416Z,10.1
2016-05-08T04:18:38.818Z,10.1
2016-05-08T04:21:52.124Z,10.1
2016-05-08T04:25:10.303Z,10.2
2016-05-08T04:28:13.577Z,10.2
2016-05-08T04:31:26.725Z,10.3
2016-05-08T04:34:37.936Z,10.3
2016-05-08T04:37:53.213Z,10.3
2016-05-08T04:41:04.675Z,10.3
2016-05-08T04:44:19.635Z,10.4
2016-05-08T04:47:32.707Z,10.4
2016-05-08T04:50:46.124Z,10.5
2016-05-08T04:54:03.943Z,10.5
2016-05-08T04:57:07.359Z,10.6
2016-05-08T05:00:20.553Z,10.6
2016-05-08T05:03:33.671Z,10.7
2016-05-08T05:06:47.025Z,10.8
2016-05-08T05:10:05.127Z,10.9
2016-05-08T05:13:08.682Z,11
2016-05-08T05:16:21.987Z,11.2
2016-05-08T05:19:36.135Z,12
2016-05-08T05:22:50.506Z,13
2016-05-08T05:26:09.546Z,14
2016-05-08T05:29:14.334Z,15
2016-05-08T05:32:28.562Z,15.9
2016-05-08T05:35:42.995Z,16.5
2016-05-08T05:39:02.267Z,17.1
2016-05-08T05:42:07.073Z,17.7
2016-05-08T05:45:21.471Z,18.2
2016-05-08T05:48:35.714Z,18.4
2016-05-08T05:51:50.210Z,18.7
2016-05-08T05:55:09.654Z,19.2
2016-05-08T05:58:14.334Z,19.6
2016-05-08T06:01:28.655Z,20.2
2016-05-08T06:04:43.448Z,20.8
2016-05-08T06:08:02.845Z,21.4
2016-05-08T06:11:07.839Z,22.1
2016-05-08T06:14:22.441Z,22.4
2016-05-08T06:17:37.073Z,23
2016-05-08T06:20:51.927Z,23.5
2016-05-08T06:24:06.717Z,23.7
2016-05-08T06:27:21.569Z,24.3
2016-05-08T06:30:36.420Z,24.3
2016-05-08T06:33:51.244Z,24.6
2016-05-08T06:37:06.002Z,25.1
2016-05-08T06:40:20.775Z,25.3
2016-05-08T06:43:35.472Z,25.4
2016-05-08T06:46:50.450Z,25.4
2016-05-08T06:50:10.287Z,25.7
2016-05-08T06:53:15.796Z,25.9
2016-05-08T06:56:30.881Z,25.7
2016-05-08T06:59:45.970Z,25.8
2016-05-08T07:03:05.978Z,26
2016-05-08T07:06:11.330Z,25.9
2016-05-08T07:09:26.025Z,26.1
2016-05-08T07:12:40.939Z,26.6
2016-05-08T07:16:00.903Z,26.5
2016-05-08T07:19:06.208Z,26.3
2016-05-08T07:22:20.999Z,26.2
2016-05-08T07:25:35.803Z,26.4
2016-05-08T07:28:50.767Z,26.6
2016-05-08T07:32:05.900Z,27.2
2016-05-08T07:35:21.017Z,27.7
2016-05-08T07:38:35.792Z,27.5
2016-05-08T07:41:50.817Z,27.6
2016-05-08T07:45:10.544Z,27.7
2016-05-08T07:48:14.021Z,28
2016-05-08T07:51:30.607Z,28
2016-05-08T07:54:45.633Z,28.3
2016-05-08T07:58:05.782Z,28.9
2016-05-08T08:01:10.962Z,29.7
2016-05-08T08:04:25.861Z,29.7
2016-05-08T08:07:40.665Z,30
2016-05-08T08:10:55.598Z,30.1
2016-05-08T08:14:10.419Z,29.9
2016-05-08T08:17:24.989Z,29.7
2016-05-08T08:20:39.216Z,29.3
2016-05-08T08:23:53.305Z,28.3
2016-05-08T08:27:05.579Z,27.9
2016-05-08T08:30:21.681Z,27.9
2016-05-08T08:33:34.282Z,28.2
2016-05-08T08:36:51.106Z,28.5
2016-05-08T08:40:05.879Z,29.1
2016-05-08T08:43:20.278Z,28.8
2016-05-08T08:46:34.833Z,28.7
2016-05-08T08:49:49.438Z,29.1
2016-05-08T08:53:09.039Z,30.3
2016-05-08T08:56:12.282Z,30.8
2016-05-08T08:59:29.134Z,30.5
2016-05-08T09:02:43.813Z,30.4
2016-05-08T09:06:03.403Z,30.5
2016-05-08T09:09:08.426Z,31.2
2016-05-08T09:12:23.169Z,31.9
2016-05-08T09:15:38.067Z,32.5
2016-05-08T09:18:52.671Z,33.2
2016-05-08T09:22:07.414Z,33.7
2016-05-08T09:25:21.907Z,33.9
2016-05-08T09:28:36.368Z,33.3
2016-05-08T09:31:50.879Z,33.4
2016-05-08T09:35:10.418Z,33
2016-05-08T09:38:15.114Z,31.8
2016-05-08T09:41:26.747Z,30.1
2016-05-08T09:44:42.505Z,29.6
2016-05-08T09:48:01.687Z,29.5
2016-05-08T09:51:05.914Z,28.1
2016-05-08T09:54:19.797Z,26.3
2016-05-08T09:57:33.461Z,24.9
2016-05-08T10:00:47.629Z,23.9
2016-05-08T10:04:06.621Z,23.2
2016-05-08T10:07:11.004Z,22.8
2016-05-08T10:10:24.700Z,22.4
2016-05-08T10:13:38.443Z,22.3
2016-05-08T10:16:52.390Z,22.3
2016-05-08T10:20:06.477Z,22.2
2016-05-08T10:23:17.656Z,22
2016-05-08T10:26:31.581Z,21.9
2016-05-08T10:29:44.589Z,21.8
2016-05-08T10:33:03.350Z,21.6
2016-05-08T10:36:07.530Z,21.6
2016-05-08T10:39:21.445Z,21.5
2016-05-08T10:42:35.531Z,21.3
2016-05-08T10:45:49.448Z,21
2016-05-08T10:49:08.143Z,20.8
2016-05-08T10:52:12.261Z,20.8
2016-05-08T10:55:26.097Z,20.8
2016-05-08T10:58:39.527Z,20.9
2016-05-08T11:01:53.303Z,20.9
2016-05-08T11:05:07.139Z,20.9
2016-05-08T11:08:20.788Z,20.8
2016-05-08T11:11:34.656Z,20.7
2016-05-08T11:14:48.382Z,20.7
2016-05-08T11:18:07.175Z,20.7
2016-05-08T11:21:11.354Z,20.7
2016-05-08T11:24:25.003Z,20.7
2016-05-08T11:27:38.777Z,20.7
2016-05-08T11:30:52.302Z,20.7
2016-05-08T11:34:06.280Z,20.8
2016-05-08T11:37:20.069Z,20.8
2016-05-08T11:40:33.593Z,20.8
2016-05-08T11:43:47.429Z,20.7
2016-05-08T11:47:06.127Z,20.7
2016-05-08T11:50:10.423Z,20.7
2016-05-08T11:53:24.302Z,20.7
2016-05-08T11:56:34.886Z,20.7
2016-05-08T11:59:48.641Z,20.6
2016-05-08T12:03:07.484Z,20.6
2016-05-08T12:06:11.543Z,20.7
2016-05-08T12:09:25.212Z,20.8
2016-05-08T12:12:38.754Z,20.9
2016-05-08T12:15:52.436Z,20.8
2016-05-08T12:19:11.054Z,20.7
2016-05-08T12:22:15.125Z,20.7
2016-05-08T12:25:28.616Z,20.8
2016-05-08T12:28:42.438Z,20.8
2016-05-08T12:31:56.026Z,20.7
2016-05-08T12:35:09.644Z,20.6
2016-05-08T12:38:23.590Z,20.7
2016-05-08T12:41:37.301Z,20.8
2016-05-08T12:44:50.996Z,20.8
2016-05-08T12:48:09.772Z,20.9
2016-05-08T12:51:13.842Z,21
2016-05-08T12:54:27.664Z,21
2016-05-08T12:57:41.030Z,21
2016-05-08T13:00:54.714Z,20.9
2016-05-08T13:04:07.971Z,20.9
2016-05-08T13:07:21.713Z,20.7
2016-05-08T13:10:35.472Z,20.7
2016-05-08T13:13:49.277Z,20.8
2016-05-08T13:17:07.929Z,20.9
2016-05-08T13:20:11.936Z,20.9
2016-05-08T13:23:25.725Z,20.9
2016-05-08T13:26:39.014Z,20.8
2016-05-08T13:29:52.430Z,20.8
2016-05-08T13:33:10.971Z,20.9
2016-05-08T13:36:14.870Z,20.9
2016-05-08T13:39:28.535Z,20.9
2016-05-08T13:42:42.137Z,20.8
2016-05-08T13:45:55.662Z,20.8
2016-05-08T13:49:09.092Z,20.8
2016-05-08T13:52:22.539Z,20.8
2016-05-08T13:55:36.468Z,20.9
2016-05-08T13:58:50.148Z,20.9
2016-05-08T14:02:08.659Z,20.8
2016-05-08T14:05:12.698Z,20.7
2016-05-08T14:08:26.112Z,20.7
2016-05-08T14:11:39.886Z,20.6
2016-05-08T14:14:53.393Z,20.6
2016-05-08T14:18:07.154Z,20.5
2016-05-08T14:21:20.616Z,20.5
2016-05-08T14:24:34.061Z,20.5
2016-05-08T14:27:47.836Z,20.5
2016-05-08T14:31:06.346Z,20.5
2016-05-08T14:34:10.323Z,20.6
2016-05-08T14:37:23.863Z,20.6
2016-05-08T14:40:37.651Z,20.5
2016-05-08T14:43:51.301Z,20.5
2016-05-08T14:47:10.045Z,20.5
2016-05-08T14:50:13.960Z,20.5
2016-05-08T14:53:27.640Z,20.4
2016-05-08T14:56:41.444Z,20.5
2016-05-08T14:59:55.156Z,20.5
2016-05-08T15:03:09.760Z,20.5
2016-05-08T15:06:21.893Z,20.6
2016-05-08T15:09:35.589Z,20.6
2016-05-08T15:12:49.268Z,20.7
2016-05-08T15:16:07.655Z,20.8
2016-05-08T15:19:11.507Z,20.8
2016-05-08T15:22:25.155Z,20.8
2016-05-08T15:25:38.960Z,20.8
2016-05-08T15:28:51.889Z,20.8
2016-05-08T15:32:10.511Z,20.9
2016-05-08T15:35:14.519Z,20.9
2016-05-08T15:38:28.260Z,20.9
2016-05-08T15:41:41.832Z,20.8
2016-05-08T15:44:55.464Z,20.7
2016-05-08T15:48:09.287Z,20.7
2016-05-08T15:51:22.843Z,20.7
2016-05-08T15:54:35.850Z,20.7
2016-05-08T15:57:49.296Z,20.7
2016-05-08T16:01:07.917Z,20.6
2016-05-08T16:04:11.893Z,20.6
2016-05-08T16:07:23.338Z,20.6
2016-05-08T16:10:38.612Z,20.6
2016-05-08T16:13:52.386Z,20.6
2016-05-08T16:17:10.615Z,20.6
2016-05-08T16:20:14.607Z,20.6
2016-05-08T16:23:26.413Z,20.6
2016-05-08T16:26:41.936Z,20.6
2016-05-08T16:29:55.538Z,20.6
2016-05-08T16:33:08.706Z,20.5
2016-05-08T16:36:22.197Z,20.5
2016-05-08T16:39:35.831Z,20.5
2016-05-08T16:42:49.557Z,20.4
2016-05-08T16:46:08.131Z,20.4
2016-05-08T16:49:11.952Z,20.4
2016-05-08T16:52:25.522Z,20.4
2016-05-08T16:55:39.093Z,20.3
2016-05-08T16:58:52.664Z,20.3
2016-05-08T17:02:11.142Z,20.3
2016-05-08T17:05:14.886Z,20.3
2016-05-08T17:08:28.111Z,20.2
2016-05-08T17:11:41.183Z,20.2
2016-05-08T17:14:54.425Z,20.2
2016-05-08T17:18:08.060Z,20.1
2016-05-08T17:21:21.804Z,20.1
2016-05-08T17:24:35.389Z,20.1
2016-05-08T17:27:48.897Z,20
2016-05-08T17:31:07.299Z,20
2016-05-08T17:34:11.041Z,20
2016-05-08T17:37:22.659Z,19.9
2016-05-08T17:40:36.182Z,19.8
2016-05-08T17:43:49.705Z,19.8
2016-05-08T17:47:07.999Z,19.8
2016-05-08T17:50:11.787Z,19.8
2016-05-08T17:53:23.187Z,19.7
2016-05-08T17:56:39.054Z,19.6
2016-05-08T17:59:52.092Z,19.6
2016-05-08T18:03:10.526Z,19.5
2016-05-08T18:06:14.252Z,19.4
2016-05-08T18:09:27.261Z,19.3
2016-05-08T18:12:40.675Z,19.3
2016-05-08T18:15:54.151Z,19.2
2016-05-08T18:19:07.882Z,19.1
2016-05-08T18:22:21.514Z,19
2016-05-08T18:25:34.940Z,18.9
2016-05-08T18:28:48.407Z,18.8
2016-05-08T18:32:06.980Z,18.7
2016-05-08T18:35:10.864Z,18.7
2016-05-08T18:38:24.450Z,18.6
2016-05-08T18:41:37.411Z,18.5
2016-05-08T18:44:50.982Z,18.4
2016-05-08T18:48:09.945Z,18.3
2016-05-08T18:51:13.688Z,18.2
2016-05-08T18:54:26.868Z,18.1
2016-05-08T18:57:40.297Z,18
2016-05-08T19:00:53.634Z,17.8
2016-05-08T19:04:07.253Z,17.8
2016-05-08T19:07:20.731Z,17.7
2016-05-08T19:10:34.247Z,17.6
2016-05-08T19:13:47.863Z,17.5
2016-05-08T19:17:06.124Z,17.4
2016-05-08T19:20:09.821Z,17.3
2016-05-08T19:23:23.110Z,17.3
2016-05-08T19:26:36.649Z,17.2
2016-05-08T19:29:49.814Z,17.1
2016-05-08T19:33:08.105Z,17
2016-05-08T19:36:11.879Z,16.9
2016-05-08T19:39:25.169Z,16.9
2016-05-08T19:42:38.505Z,16.8
2016-05-08T19:45:52.013Z,16.7
2016-05-08T19:49:10.492Z,16.6
2016-05-08T19:52:14.126Z,16.5
2016-05-08T19:55:27.165Z,16.4
2016-05-08T19:58:40.767Z,16.3
2016-05-08T20:01:53.197Z,16.3
2016-05-08T20:05:11.347Z,16.2
2016-05-08T20:08:14.933Z,16.1
2016-05-08T20:11:28.161Z,16
2016-05-08T20:14:41.309Z,15.9
2016-05-08T20:17:54.615Z,15.9
2016-05-08T20:21:07.812Z,15.8
2016-05-08T20:24:21.102Z,15.7
2016-05-08T20:27:34.360Z,15.6
2016-05-08T20:30:47.789Z,15.5
2016-05-08T20:34:04.192Z,15.5
2016-05-08T20:37:07.683Z,15.5
2016-05-08T20:40:18.802Z,15.4
2016-05-08T20:43:34.325Z,15.4
2016-05-08T20:46:47.738Z,15.4
2016-05-08T20:50:06.204Z,15.3
2016-05-08T20:53:09.914Z,15.3
2016-05-08T20:56:23.028Z,15.2
2016-05-08T20:59:36.294Z,15.2
2016-05-08T21:02:49.924Z,15.2
2016-05-08T21:06:07.125Z,15.1
2016-05-08T21:09:10.488Z,15.1
2016-05-08T21:12:20.268Z,15
2016-05-08T21:15:33.373Z,15
2016-05-08T21:18:46.665Z,14.9
2016-05-08T21:22:05.018Z,14.8
2016-05-08T21:25:08.543Z,14.7
2016-05-08T21:28:21.568Z,14.7
2016-05-08T21:31:34.997Z,14.6
2016-05-08T21:34:48.239Z,14.5
2016-05-08T21:38:06.344Z,14.5
2016-05-08T21:41:09.680Z,14.4
2016-05-08T21:44:22.891Z,14.3
2016-05-08T21:47:36.337Z,14.3
2016-05-08T21:50:49.440Z,14.3
2016-05-08T21:54:07.778Z,14.2
2016-05-08T21:57:11.333Z,14.2
2016-05-08T22:00:24.450Z,14.1
2016-05-08T22:03:37.756Z,14.1
2016-05-08T22:06:50.811Z,14.1
2016-05-08T22:10:09.055Z,14.1
2016-05-08T22:13:10.485Z,14
2016-05-08T22:16:25.759Z,14
2016-05-08T22:19:39.127Z,13.9
2016-05-08T22:22:52.134Z,13.9
2016-05-08T22:26:10.276Z,13.8
2016-05-08T22:29:13.753Z,13.8
2016-05-08T22:32:25.933Z,13.8
2016-05-08T22:35:39.206Z,13.8
2016-05-08T22:38:52.403Z,13.7
2016-05-08T22:42:10.491Z,13.6
2016-05-08T22:45:13.875Z,13.6
2016-05-08T22:48:26.897Z,13.5
2016-05-08T22:51:39.969Z,13.4
2016-05-08T22:54:52.773Z,13.4
2016-05-08T22:58:10.971Z,13.4
2016-05-08T23:01:14.198Z,13.3
2016-05-08T23:04:27.456Z,13.3
2016-05-08T23:07:40.183Z,13.2
2016-05-08T23:10:53.035Z,13.1
2016-05-08T23:14:11.014Z,13.1
2016-05-08T23:17:14.383Z,13
2016-05-08T23:20:27.546Z,13
2016-05-08T23:23:40.679Z,13
2016-05-08T23:26:53.827Z,12.9
2016-05-08T23:30:11.761Z,12.9
2016-05-08T23:33:15.128Z,12.8
2016-05-08T23:36:28.168Z,12.8
2016-05-08T23:39:41.395Z,12.8
2016-05-08T23:42:54.386Z,12.7
2016-05-08T23:46:07.567Z,12.6
2016-05-08T23:49:20.655Z,12.6
2016-05-08T23:52:34.116Z,12.6
2016-05-08T23:55:46.593Z,12.6
2016-05-08T23:59:04.632Z,12.5
